sensor_id;sensor_type;location;lat;lon;timestamp;temperature;humidity
40538;DHT22;27925;41.874;12.526;2022-10-16T00:00:45;18.70;90.40
40538;DHT22;27925;41.874;12.526;2022-10-16T00:03:11;18.70;90.50
40538;DHT22;27925;41.874;12.526;2022-10-16T00:05:42;18.70;90.60
40538;DHT22;27925;41.874;12.526;2022-10-16T00:08:10;18.60;90.50
40538;DHT22;27925;41.874;12.526;2022-10-16T00:10:36;18.60;90.60
40538;DHT22;27925;41.874;12.526;2022-10-16T00:13:03;18.60;90.70
40538;DHT22;27925;41.874;12.526;2022-10-16T00:15:35;18.60;90.50
40538;DHT22;27925;41.874;12.526;2022-10-16T00:18:03;18.50;90.60
40538;DHT22;27925;41.874;12.526;2022-10-16T00:20:29;18.50;90.50
40538;DHT22;27925;41.874;12.526;2022-10-16T00:22:56;18.50;90.30
40538;DHT22;27925;41.874;12.526;2022-10-16T00:25:22;18.50;90.40
40538;DHT22;27925;41.874;12.526;2022-10-16T00:27:51;18.50;90.50
40538;DHT22;27925;41.874;12.526;2022-10-16T00:30:17;18.40;90.50
40538;DHT22;27925;41.874;12.526;2022-10-16T00:32:43;18.30;90.50
40538;DHT22;27925;41.874;12.526;2022-10-16T00:35:08;18.30;90.60
40538;DHT22;27925;41.874;12.526;2022-10-16T00:37:34;18.20;90.60
40538;DHT22;27925;41.874;12.526;2022-10-16T00:40:00;18.20;90.70
40538;DHT22;27925;41.874;12.526;2022-10-16T00:42:25;18.10;90.70
40538;DHT22;27925;41.874;12.526;2022-10-16T00:44:56;18.00;90.70
40538;DHT22;27925;41.874;12.526;2022-10-16T00:50:10;18.00;90.80
40538;DHT22;27925;41.874;12.526;2022-10-16T00:52:39;17.90;90.70
40538;DHT22;27925;41.874;12.526;2022-10-16T00:55:08;17.90;90.60
40538;DHT22;27925;41.874;12.526;2022-10-16T00:57:35;17.90;90.70
40538;DHT22;27925;41.874;12.526;2022-10-16T01:00:03;17.90;90.60
40538;DHT22;27925;41.874;12.526;2022-10-16T01:02:29;17.90;90.50
40538;DHT22;27925;41.874;12.526;2022-10-16T01:04:55;17.90;90.50
40538;DHT22;27925;41.874;12.526;2022-10-16T01:17:49;17.80;90.50
40538;DHT22;27925;41.874;12.526;2022-10-16T01:20:52;17.80;90.30
40538;DHT22;27925;41.874;12.526;2022-10-16T01:23:28;17.80;90.50
40538;DHT22;27925;41.874;12.526;2022-10-16T01:31:35;17.70;90.60
40538;DHT22;27925;41.874;12.526;2022-10-16T01:34:22;17.70;90.50
40538;DHT22;27925;41.874;12.526;2022-10-16T01:36:53;17.70;90.50
40538;DHT22;27925;41.874;12.526;2022-10-16T01:39:24;17.70;90.50
40538;DHT22;27925;41.874;12.526;2022-10-16T01:42:01;17.70;90.50
40538;DHT22;27925;41.874;12.526;2022-10-16T01:44:33;17.70;90.60
40538;DHT22;27925;41.874;12.526;2022-10-16T01:47:01;17.70;90.40
40538;DHT22;27925;41.874;12.526;2022-10-16T01:49:32;17.70;90.60
40538;DHT22;27925;41.874;12.526;2022-10-16T01:52:00;17.70;90.60
40538;DHT22;27925;41.874;12.526;2022-10-16T01:54:28;17.70;90.50
40538;DHT22;27925;41.874;12.526;2022-10-16T01:56:56;17.70;90.40
40538;DHT22;27925;41.874;12.526;2022-10-16T01:59:26;17.70;90.40
40538;DHT22;27925;41.874;12.526;2022-10-16T02:01:58;17.70;90.40
40538;DHT22;27925;41.874;12.526;2022-10-16T02:04:32;17.70;90.30
40538;DHT22;27925;41.874;12.526;2022-10-16T02:06:58;17.60;90.40
40538;DHT22;27925;41.874;12.526;2022-10-16T02:09:25;17.60;90.50
40538;DHT22;27925;41.874;12.526;2022-10-16T02:11:54;17.60;90.50
40538;DHT22;27925;41.874;12.526;2022-10-16T02:14:21;17.50;90.50
40538;DHT22;27925;41.874;12.526;2022-10-16T02:16:50;17.50;90.70
40538;DHT22;27925;41.874;12.526;2022-10-16T02:19:17;17.50;90.60
40538;DHT22;27925;41.874;12.526;2022-10-16T02:21:58;17.40;90.70
40538;DHT22;27925;41.874;12.526;2022-10-16T02:24:33;17.40;90.60
40538;DHT22;27925;41.874;12.526;2022-10-16T02:27:10;17.40;90.50
40538;DHT22;27925;41.874;12.526;2022-10-16T02:29:45;17.40;90.70
40538;DHT22;27925;41.874;12.526;2022-10-16T02:32:16;17.40;90.60
40538;DHT22;27925;41.874;12.526;2022-10-16T02:34:46;17.50;90.50
40538;DHT22;27925;41.874;12.526;2022-10-16T02:37:12;17.50;90.40
40538;DHT22;27925;41.874;12.526;2022-10-16T02:39:39;17.50;90.30
40538;DHT22;27925;41.874;12.526;2022-10-16T02:42:13;17.40;90.30
40538;DHT22;27925;41.874;12.526;2022-10-16T02:44:39;17.40;90.60
40538;DHT22;27925;41.874;12.526;2022-10-16T02:47:05;17.40;90.40
40538;DHT22;27925;41.874;12.526;2022-10-16T02:49:31;17.40;90.40
40538;DHT22;27925;41.874;12.526;2022-10-16T02:51:57;17.40;90.40
40538;DHT22;27925;41.874;12.526;2022-10-16T02:54:23;17.40;90.50
40538;DHT22;27925;41.874;12.526;2022-10-16T02:56:49;17.40;90.40
40538;DHT22;27925;41.874;12.526;2022-10-16T02:59:15;17.40;90.40
40538;DHT22;27925;41.874;12.526;2022-10-16T03:01:42;17.40;90.30
40538;DHT22;27925;41.874;12.526;2022-10-16T03:04:07;17.40;90.30
40538;DHT22;27925;41.874;12.526;2022-10-16T03:06:34;17.40;90.20
40538;DHT22;27925;41.874;12.526;2022-10-16T03:09:00;17.30;90.30
40538;DHT22;27925;41.874;12.526;2022-10-16T03:11:25;17.20;90.30
40538;DHT22;27925;41.874;12.526;2022-10-16T03:13:52;17.20;90.40
40538;DHT22;27925;41.874;12.526;2022-10-16T03:16:17;17.20;90.50
40538;DHT22;27925;41.874;12.526;2022-10-16T03:18:43;17.20;90.50
40538;DHT22;27925;41.874;12.526;2022-10-16T03:21:12;17.20;90.50
40538;DHT22;27925;41.874;12.526;2022-10-16T03:23:38;17.20;90.40
40538;DHT22;27925;41.874;12.526;2022-10-16T03:26:04;17.20;90.50
40538;DHT22;27925;41.874;12.526;2022-10-16T03:28:31;17.20;90.50
40538;DHT22;27925;41.874;12.526;2022-10-16T03:30:57;17.20;90.70
40538;DHT22;27925;41.874;12.526;2022-10-16T03:33:23;17.20;90.60
40538;DHT22;27925;41.874;12.526;2022-10-16T03:35:53;17.10;90.60
40538;DHT22;27925;41.874;12.526;2022-10-16T03:38:19;17.10;90.60
40538;DHT22;27925;41.874;12.526;2022-10-16T03:40:45;17.10;90.70
40538;DHT22;27925;41.874;12.526;2022-10-16T03:43:11;17.10;90.80
40538;DHT22;27925;41.874;12.526;2022-10-16T03:45:36;17.00;90.90
40538;DHT22;27925;41.874;12.526;2022-10-16T03:48:02;17.10;91.00
40538;DHT22;27925;41.874;12.526;2022-10-16T03:50:29;17.00;91.00
40538;DHT22;27925;41.874;12.526;2022-10-16T03:52:54;17.00;91.00
40538;DHT22;27925;41.874;12.526;2022-10-16T03:55:20;17.00;91.10
40538;DHT22;27925;41.874;12.526;2022-10-16T03:57:46;17.00;91.00
40538;DHT22;27925;41.874;12.526;2022-10-16T04:00:12;17.00;91.10
40538;DHT22;27925;41.874;12.526;2022-10-16T04:02:39;16.90;91.10
40538;DHT22;27925;41.874;12.526;2022-10-16T04:05:05;16.90;91.10
40538;DHT22;27925;41.874;12.526;2022-10-16T04:07:30;16.90;91.20
40538;DHT22;27925;41.874;12.526;2022-10-16T04:09:56;16.90;91.20
40538;DHT22;27925;41.874;12.526;2022-10-16T04:12:24;16.80;91.40
40538;DHT22;27925;41.874;12.526;2022-10-16T04:14:50;16.80;91.40
40538;DHT22;27925;41.874;12.526;2022-10-16T04:17:16;16.80;91.60
40538;DHT22;27925;41.874;12.526;2022-10-16T04:19:42;16.80;91.70
40538;DHT22;27925;41.874;12.526;2022-10-16T04:22:08;16.80;91.70
40538;DHT22;27925;41.874;12.526;2022-10-16T04:24:33;16.70;91.80
40538;DHT22;27925;41.874;12.526;2022-10-16T04:27:00;16.70;91.80
40538;DHT22;27925;41.874;12.526;2022-10-16T04:29:26;16.70;91.80
40538;DHT22;27925;41.874;12.526;2022-10-16T04:31:52;16.70;91.90
40538;DHT22;27925;41.874;12.526;2022-10-16T04:34:17;16.70;92.00
40538;DHT22;27925;41.874;12.526;2022-10-16T04:36:43;16.70;91.90
40538;DHT22;27925;41.874;12.526;2022-10-16T04:39:09;16.80;92.00
40538;DHT22;27925;41.874;12.526;2022-10-16T04:41:35;16.70;91.90
40538;DHT22;27925;41.874;12.526;2022-10-16T04:44:02;16.70;91.80
40538;DHT22;27925;41.874;12.526;2022-10-16T04:46:28;16.70;91.90
40538;DHT22;27925;41.874;12.526;2022-10-16T04:48:54;16.70;92.00
40538;DHT22;27925;41.874;12.526;2022-10-16T04:51:22;16.70;92.00
40538;DHT22;27925;41.874;12.526;2022-10-16T04:53:48;16.70;92.00
40538;DHT22;27925;41.874;12.526;2022-10-16T04:56:14;16.70;92.00
40538;DHT22;27925;41.874;12.526;2022-10-16T04:58:41;16.60;92.10
40538;DHT22;27925;41.874;12.526;2022-10-16T05:01:06;16.60;92.10
40538;DHT22;27925;41.874;12.526;2022-10-16T05:03:32;16.60;92.10
40538;DHT22;27925;41.874;12.526;2022-10-16T05:05:58;16.50;92.10
40538;DHT22;27925;41.874;12.526;2022-10-16T05:08:23;16.60;92.20
40538;DHT22;27925;41.874;12.526;2022-10-16T05:10:49;16.60;92.10
40538;DHT22;27925;41.874;12.526;2022-10-16T05:13:15;16.60;92.20
40538;DHT22;27925;41.874;12.526;2022-10-16T05:15:40;16.50;92.10
40538;DHT22;27925;41.874;12.526;2022-10-16T05:18:06;16.60;92.10
40538;DHT22;27925;41.874;12.526;2022-10-16T05:20:32;16.60;92.10
40538;DHT22;27925;41.874;12.526;2022-10-16T05:22:57;16.60;91.90
40538;DHT22;27925;41.874;12.526;2022-10-16T05:25:24;16.60;92.00
40538;DHT22;27925;41.874;12.526;2022-10-16T05:27:49;16.60;91.90
40538;DHT22;27925;41.874;12.526;2022-10-16T05:30:16;16.60;91.80
40538;DHT22;27925;41.874;12.526;2022-10-16T05:32:46;16.60;91.80
40538;DHT22;27925;41.874;12.526;2022-10-16T05:35:12;16.50;91.80
40538;DHT22;27925;41.874;12.526;2022-10-16T05:37:38;16.50;92.00
40538;DHT22;27925;41.874;12.526;2022-10-16T05:40:04;16.50;91.80
40538;DHT22;27925;41.874;12.526;2022-10-16T05:42:30;16.40;91.80
40538;DHT22;27925;41.874;12.526;2022-10-16T05:44:56;16.50;91.90
40538;DHT22;27925;41.874;12.526;2022-10-16T05:47:22;16.50;91.90
40538;DHT22;27925;41.874;12.526;2022-10-16T05:49:47;16.50;91.80
40538;DHT22;27925;41.874;12.526;2022-10-16T05:52:14;16.50;91.80
40538;DHT22;27925;41.874;12.526;2022-10-16T05:54:41;16.50;92.10
40538;DHT22;27925;41.874;12.526;2022-10-16T05:57:07;16.60;91.90
40538;DHT22;27925;41.874;12.526;2022-10-16T05:59:33;16.60;91.80
40538;DHT22;27925;41.874;12.526;2022-10-16T06:01:59;16.60;91.70
40538;DHT22;27925;41.874;12.526;2022-10-16T06:04:25;16.70;91.60
40538;DHT22;27925;41.874;12.526;2022-10-16T06:06:51;16.80;91.60
40538;DHT22;27925;41.874;12.526;2022-10-16T06:09:17;16.80;91.50
40538;DHT22;27925;41.874;12.526;2022-10-16T06:11:42;16.80;91.50
40538;DHT22;27925;41.874;12.526;2022-10-16T06:14:08;16.80;91.40
40538;DHT22;27925;41.874;12.526;2022-10-16T06:16:35;16.80;91.40
40538;DHT22;27925;41.874;12.526;2022-10-16T06:19:02;16.90;91.40
40538;DHT22;27925;41.874;12.526;2022-10-16T06:21:31;16.90;91.20
40538;DHT22;27925;41.874;12.526;2022-10-16T06:23:58;17.00;91.20
40538;DHT22;27925;41.874;12.526;2022-10-16T06:26:26;17.10;91.10
40538;DHT22;27925;41.874;12.526;2022-10-16T06:28:55;17.20;90.90
40538;DHT22;27925;41.874;12.526;2022-10-16T06:31:21;17.20;90.80
40538;DHT22;27925;41.874;12.526;2022-10-16T06:33:50;17.40;90.70
40538;DHT22;27925;41.874;12.526;2022-10-16T06:36:17;17.50;90.50
40538;DHT22;27925;41.874;12.526;2022-10-16T06:38:44;17.60;90.40
40538;DHT22;27925;41.874;12.526;2022-10-16T06:41:16;17.80;90.10
40538;DHT22;27925;41.874;12.526;2022-10-16T06:43:41;17.90;90.10
40538;DHT22;27925;41.874;12.526;2022-10-16T06:46:14;18.00;89.80
40538;DHT22;27925;41.874;12.526;2022-10-16T06:48:40;18.20;89.10
40538;DHT22;27925;41.874;12.526;2022-10-16T06:51:12;18.20;88.60
40538;DHT22;27925;41.874;12.526;2022-10-16T06:53:41;18.40;88.40
40538;DHT22;27925;41.874;12.526;2022-10-16T06:56:12;18.40;87.60
40538;DHT22;27925;41.874;12.526;2022-10-16T06:58:38;18.60;87.50
40538;DHT22;27925;41.874;12.526;2022-10-16T07:01:06;18.70;87.10
40538;DHT22;27925;41.874;12.526;2022-10-16T07:03:32;18.70;85.80
40538;DHT22;27925;41.874;12.526;2022-10-16T07:06:12;18.70;85.40
40538;DHT22;27925;41.874;12.526;2022-10-16T07:08:41;18.80;85.40
40538;DHT22;27925;41.874;12.526;2022-10-16T07:11:12;18.90;85.10
40538;DHT22;27925;41.874;12.526;2022-10-16T07:13:40;18.90;83.80
40538;DHT22;27925;41.874;12.526;2022-10-16T07:16:11;19.00;84.00
40538;DHT22;27925;41.874;12.526;2022-10-16T07:18:37;19.10;83.70
40538;DHT22;27925;41.874;12.526;2022-10-16T07:21:11;19.20;83.50
40538;DHT22;27925;41.874;12.526;2022-10-16T07:23:38;19.30;83.00
40538;DHT22;27925;41.874;12.526;2022-10-16T07:26:05;19.40;83.10
40538;DHT22;27925;41.874;12.526;2022-10-16T07:28:32;19.40;82.20
40538;DHT22;27925;41.874;12.526;2022-10-16T07:31:05;19.40;81.80
40538;DHT22;27925;41.874;12.526;2022-10-16T07:33:33;19.50;81.50
40538;DHT22;27925;41.874;12.526;2022-10-16T07:35:59;19.50;81.50
40538;DHT22;27925;41.874;12.526;2022-10-16T07:38:25;19.50;81.30
40538;DHT22;27925;41.874;12.526;2022-10-16T07:41:05;19.50;81.00
40538;DHT22;27925;41.874;12.526;2022-10-16T07:43:32;19.50;81.70
40538;DHT22;27925;41.874;12.526;2022-10-16T07:45:58;19.40;81.00
40538;DHT22;27925;41.874;12.526;2022-10-16T07:48:27;19.40;80.80
40538;DHT22;27925;41.874;12.526;2022-10-16T07:51:00;19.40;80.40
40538;DHT22;27925;41.874;12.526;2022-10-16T07:53:26;19.40;80.50
40538;DHT22;27925;41.874;12.526;2022-10-16T07:55:56;19.40;80.50
40538;DHT22;27925;41.874;12.526;2022-10-16T07:58:23;19.40;80.60
40538;DHT22;27925;41.874;12.526;2022-10-16T08:00:49;19.40;80.50
40538;DHT22;27925;41.874;12.526;2022-10-16T08:03:14;19.40;81.10
40538;DHT22;27925;41.874;12.526;2022-10-16T08:05:41;19.50;80.50
40538;DHT22;27925;41.874;12.526;2022-10-16T08:08:14;19.40;80.70
40538;DHT22;27925;41.874;12.526;2022-10-16T08:10:40;19.40;80.80
40538;DHT22;27925;41.874;12.526;2022-10-16T08:13:06;19.50;80.20
40538;DHT22;27925;41.874;12.526;2022-10-16T08:15:31;19.50;80.20
40538;DHT22;27925;41.874;12.526;2022-10-16T08:18:03;19.50;80.20
40538;DHT22;27925;41.874;12.526;2022-10-16T08:20:29;19.50;80.00
40538;DHT22;27925;41.874;12.526;2022-10-16T08:22:55;19.50;79.90
40538;DHT22;27925;41.874;12.526;2022-10-16T08:25:22;19.60;80.20
40538;DHT22;27925;41.874;12.526;2022-10-16T08:27:49;19.60;79.90
40538;DHT22;27925;41.874;12.526;2022-10-16T08:30:15;19.60;80.10
40538;DHT22;27925;41.874;12.526;2022-10-16T08:32:41;19.70;80.10
40538;DHT22;27925;41.874;12.526;2022-10-16T08:35:09;19.70;80.00
40538;DHT22;27925;41.874;12.526;2022-10-16T08:37:35;19.70;79.70
40538;DHT22;27925;41.874;12.526;2022-10-16T08:40:01;19.80;80.00
40538;DHT22;27925;41.874;12.526;2022-10-16T08:42:52;19.80;79.90
40538;DHT22;27925;41.874;12.526;2022-10-16T08:48:25;20.00;80.80
40538;DHT22;27925;41.874;12.526;2022-10-16T08:50:53;20.00;80.10
40538;DHT22;27925;41.874;12.526;2022-10-16T08:53:28;20.10;79.70
40538;DHT22;27925;41.874;12.526;2022-10-16T08:55:56;20.20;79.50
40538;DHT22;27925;41.874;12.526;2022-10-16T08:58:29;20.20;80.40
40538;DHT22;27925;41.874;12.526;2022-10-16T09:00:57;20.30;79.30
40538;DHT22;27925;41.874;12.526;2022-10-16T09:06:50;20.50;80.00
40538;DHT22;27925;41.874;12.526;2022-10-16T09:12:07;20.60;78.70
40538;DHT22;27925;41.874;12.526;2022-10-16T09:22:48;21.00;78.50
40538;DHT22;27925;41.874;12.526;2022-10-16T09:25:19;21.10;77.40
40538;DHT22;27925;41.874;12.526;2022-10-16T09:27:48;21.10;76.90
40538;DHT22;27925;41.874;12.526;2022-10-16T09:30:17;21.20;77.00
40538;DHT22;27925;41.874;12.526;2022-10-16T09:32:52;21.30;76.60
40538;DHT22;27925;41.874;12.526;2022-10-16T09:35:27;21.40;76.70
40538;DHT22;27925;41.874;12.526;2022-10-16T09:37:56;21.40;76.60
40538;DHT22;27925;41.874;12.526;2022-10-16T09:40:35;21.50;75.80
40538;DHT22;27925;41.874;12.526;2022-10-16T09:45:41;21.60;75.40
40538;DHT22;27925;41.874;12.526;2022-10-16T09:48:13;21.70;75.50
40538;DHT22;27925;41.874;12.526;2022-10-16T09:50:43;21.80;75.40
40538;DHT22;27925;41.874;12.526;2022-10-16T09:53:14;22.00;75.20
40538;DHT22;27925;41.874;12.526;2022-10-16T09:55:50;22.00;74.90
40538;DHT22;27925;41.874;12.526;2022-10-16T09:58:16;22.10;74.70
40538;DHT22;27925;41.874;12.526;2022-10-16T10:00:54;22.20;74.10
40538;DHT22;27925;41.874;12.526;2022-10-16T10:03:39;22.30;74.40
40538;DHT22;27925;41.874;12.526;2022-10-16T10:08:57;22.60;73.00
40538;DHT22;27925;41.874;12.526;2022-10-16T10:17:13;22.90;72.00
40538;DHT22;27925;41.874;12.526;2022-10-16T10:39:15;23.40;69.60
40538;DHT22;27925;41.874;12.526;2022-10-16T10:42:18;23.50;69.60
40538;DHT22;27925;41.874;12.526;2022-10-16T10:48:13;23.70;71.10
40538;DHT22;27925;41.874;12.526;2022-10-16T10:50:44;23.80;69.10
40538;DHT22;27925;41.874;12.526;2022-10-16T10:56:05;23.90;68.30
40538;DHT22;27925;41.874;12.526;2022-10-16T11:02:11;24.00;67.70
40538;DHT22;27925;41.874;12.526;2022-10-16T11:08:49;24.10;67.60
40538;DHT22;27925;41.874;12.526;2022-10-16T11:13:26;24.30;68.70
40538;DHT22;27925;41.874;12.526;2022-10-16T11:15:57;24.40;66.70
40538;DHT22;27925;41.874;12.526;2022-10-16T11:21:07;24.50;66.30
40538;DHT22;27925;41.874;12.526;2022-10-16T11:23:57;24.50;67.10
40538;DHT22;27925;41.874;12.526;2022-10-16T11:26:33;24.50;65.70
40538;DHT22;27925;41.874;12.526;2022-10-16T11:29:00;24.60;67.30
40538;DHT22;27925;41.874;12.526;2022-10-16T11:31:40;24.70;66.90
40538;DHT22;27925;41.874;12.526;2022-10-16T11:34:36;24.70;66.70
40538;DHT22;27925;41.874;12.526;2022-10-16T11:37:11;24.80;66.50
40538;DHT22;27925;41.874;12.526;2022-10-16T11:39:38;24.90;66.40
40538;DHT22;27925;41.874;12.526;2022-10-16T11:47:27;25.00;66.00
40538;DHT22;27925;41.874;12.526;2022-10-16T11:50:34;25.10;65.00
40538;DHT22;27925;41.874;12.526;2022-10-16T11:53:23;25.10;64.70
40538;DHT22;27925;41.874;12.526;2022-10-16T11:55:55;25.20;64.40
40538;DHT22;27925;41.874;12.526;2022-10-16T12:01:10;25.30;64.00
40538;DHT22;27925;41.874;12.526;2022-10-16T12:06:33;25.40;63.60
40538;DHT22;27925;41.874;12.526;2022-10-16T12:09:00;25.50;63.80
40538;DHT22;27925;41.874;12.526;2022-10-16T12:14:06;25.70;63.90
40538;DHT22;27925;41.874;12.526;2022-10-16T12:16:32;25.90;64.20
40538;DHT22;27925;41.874;12.526;2022-10-16T12:19:15;25.90;64.00
40538;DHT22;27925;41.874;12.526;2022-10-16T12:21:43;26.00;64.10
40538;DHT22;27925;41.874;12.526;2022-10-16T12:27:00;26.10;62.00
40538;DHT22;27925;41.874;12.526;2022-10-16T12:32:03;26.10;62.20
40538;DHT22;27925;41.874;12.526;2022-10-16T12:34:36;26.20;62.20
40538;DHT22;27925;41.874;12.526;2022-10-16T12:37:28;26.30;61.80
40538;DHT22;27925;41.874;12.526;2022-10-16T12:39:55;26.30;60.70
40538;DHT22;27925;41.874;12.526;2022-10-16T12:42:32;26.30;60.80
40538;DHT22;27925;41.874;12.526;2022-10-16T12:45:00;26.40;59.90
40538;DHT22;27925;41.874;12.526;2022-10-16T12:49:59;26.40;60.20
40538;DHT22;27925;41.874;12.526;2022-10-16T12:52:37;26.40;60.50
40538;DHT22;27925;41.874;12.526;2022-10-16T12:55:05;26.40;59.90
40538;DHT22;27925;41.874;12.526;2022-10-16T12:58:17;26.50;60.50
40538;DHT22;27925;41.874;12.526;2022-10-16T13:00:57;26.50;60.00
40538;DHT22;27925;41.874;12.526;2022-10-16T13:06:30;26.70;59.40
40538;DHT22;27925;41.874;12.526;2022-10-16T13:28:10;26.00;60.00
40538;DHT22;27925;41.874;12.526;2022-10-16T13:30:55;26.10;60.40
40538;DHT22;27925;41.874;12.526;2022-10-16T13:33:39;26.20;59.30
40538;DHT22;27925;41.874;12.526;2022-10-16T13:36:22;26.10;59.80
40538;DHT22;27925;41.874;12.526;2022-10-16T13:39:15;26.00;59.30
40538;DHT22;27925;41.874;12.526;2022-10-16T13:41:43;25.90;59.70
40538;DHT22;27925;41.874;12.526;2022-10-16T13:44:15;25.90;59.60
40538;DHT22;27925;41.874;12.526;2022-10-16T13:46:43;26.00;60.00
40538;DHT22;27925;41.874;12.526;2022-10-16T13:49:16;26.10;59.50
40538;DHT22;27925;41.874;12.526;2022-10-16T13:51:57;26.30;59.70
40538;DHT22;27925;41.874;12.526;2022-10-16T13:54:23;26.40;60.70
40538;DHT22;27925;41.874;12.526;2022-10-16T13:56:50;26.50;61.70
40538;DHT22;27925;41.874;12.526;2022-10-16T13:59:35;26.40;63.90
40538;DHT22;27925;41.874;12.526;2022-10-16T14:02:30;26.50;64.80
40538;DHT22;27925;41.874;12.526;2022-10-16T14:04:57;26.50;65.70
40538;DHT22;27925;41.874;12.526;2022-10-16T14:07:29;26.50;65.90
40538;DHT22;27925;41.874;12.526;2022-10-16T14:10:04;26.50;65.90
40538;DHT22;27925;41.874;12.526;2022-10-16T14:12:31;26.50;66.00
40538;DHT22;27925;41.874;12.526;2022-10-16T14:14:58;26.50;65.80
40538;DHT22;27925;41.874;12.526;2022-10-16T14:19:59;26.40;65.70
40538;DHT22;27925;41.874;12.526;2022-10-16T14:22:41;26.40;66.00
40538;DHT22;27925;41.874;12.526;2022-10-16T14:27:45;26.50;65.40
40538;DHT22;27925;41.874;12.526;2022-10-16T14:30:22;26.50;65.40
40538;DHT22;27925;41.874;12.526;2022-10-16T14:35:41;26.50;65.10
40538;DHT22;27925;41.874;12.526;2022-10-16T14:38:19;26.60;64.70
40538;DHT22;27925;41.874;12.526;2022-10-16T14:40:49;26.60;64.90
40538;DHT22;27925;41.874;12.526;2022-10-16T14:43:31;26.60;65.00
40538;DHT22;27925;41.874;12.526;2022-10-16T14:45:58;26.50;65.80
40538;DHT22;27925;41.874;12.526;2022-10-16T14:48:26;26.20;66.80
40538;DHT22;27925;41.874;12.526;2022-10-16T14:50:55;26.10;67.40
40538;DHT22;27925;41.874;12.526;2022-10-16T14:53:21;26.00;67.30
40538;DHT22;27925;41.874;12.526;2022-10-16T14:55:47;26.00;68.50
40538;DHT22;27925;41.874;12.526;2022-10-16T14:58:22;26.10;69.10
40538;DHT22;27925;41.874;12.526;2022-10-16T15:00:48;26.10;68.90
40538;DHT22;27925;41.874;12.526;2022-10-16T15:03:14;26.10;68.70
40538;DHT22;27925;41.874;12.526;2022-10-16T15:05:41;26.20;68.90
40538;DHT22;27925;41.874;12.526;2022-10-16T15:08:06;26.20;68.80
40538;DHT22;27925;41.874;12.526;2022-10-16T15:10:38;26.20;68.50
40538;DHT22;27925;41.874;12.526;2022-10-16T15:13:04;26.20;68.60
40538;DHT22;27925;41.874;12.526;2022-10-16T15:15:44;26.10;68.70
40538;DHT22;27925;41.874;12.526;2022-10-16T15:18:10;26.00;69.00
40538;DHT22;27925;41.874;12.526;2022-10-16T15:20:37;25.90;69.70
40538;DHT22;27925;41.874;12.526;2022-10-16T15:23:06;25.70;70.00
40538;DHT22;27925;41.874;12.526;2022-10-16T15:25:53;25.60;70.50
40538;DHT22;27925;41.874;12.526;2022-10-16T15:28:21;25.60;69.40
40538;DHT22;27925;41.874;12.526;2022-10-16T15:30:50;25.50;71.00
40538;DHT22;27925;41.874;12.526;2022-10-16T15:33:21;25.50;71.00
40538;DHT22;27925;41.874;12.526;2022-10-16T15:35:50;25.50;71.20
40538;DHT22;27925;41.874;12.526;2022-10-16T15:38:17;25.50;71.50
40538;DHT22;27925;41.874;12.526;2022-10-16T15:40:45;25.30;71.50
40538;DHT22;27925;41.874;12.526;2022-10-16T15:43:10;25.30;71.80
40538;DHT22;27925;41.874;12.526;2022-10-16T15:45:37;25.10;71.90
40538;DHT22;27925;41.874;12.526;2022-10-16T15:48:03;25.10;72.40
40538;DHT22;27925;41.874;12.526;2022-10-16T15:50:30;25.10;72.80
40538;DHT22;27925;41.874;12.526;2022-10-16T15:52:56;25.00;74.10
40538;DHT22;27925;41.874;12.526;2022-10-16T15:55:26;25.00;73.40
40538;DHT22;27925;41.874;12.526;2022-10-16T15:57:51;24.80;71.80
40538;DHT22;27925;41.874;12.526;2022-10-16T16:00:19;24.70;74.10
40538;DHT22;27925;41.874;12.526;2022-10-16T16:02:52;24.60;74.70
40538;DHT22;27925;41.874;12.526;2022-10-16T16:05:19;24.50;75.60
40538;DHT22;27925;41.874;12.526;2022-10-16T16:07:45;24.40;75.90
40538;DHT22;27925;41.874;12.526;2022-10-16T16:10:11;24.30;75.90
40538;DHT22;27925;41.874;12.526;2022-10-16T16:12:38;24.30;76.70
40538;DHT22;27925;41.874;12.526;2022-10-16T16:15:05;24.10;76.80
40538;DHT22;27925;41.874;12.526;2022-10-16T16:17:33;24.00;76.00
40538;DHT22;27925;41.874;12.526;2022-10-16T16:19:59;24.00;76.60
40538;DHT22;27925;41.874;12.526;2022-10-16T16:22:25;23.90;76.70
40538;DHT22;27925;41.874;12.526;2022-10-16T16:24:52;23.80;76.50
40538;DHT22;27925;41.874;12.526;2022-10-16T16:27:20;23.80;77.20
40538;DHT22;27925;41.874;12.526;2022-10-16T16:29:47;23.60;77.10
40538;DHT22;27925;41.874;12.526;2022-10-16T16:32:13;23.60;77.40
40538;DHT22;27925;41.874;12.526;2022-10-16T16:34:38;23.50;78.10
40538;DHT22;27925;41.874;12.526;2022-10-16T16:37:04;23.40;78.20
40538;DHT22;27925;41.874;12.526;2022-10-16T16:39:30;23.40;78.70
40538;DHT22;27925;41.874;12.526;2022-10-16T16:41:57;23.30;79.00
40538;DHT22;27925;41.874;12.526;2022-10-16T16:44:27;23.30;79.60
40538;DHT22;27925;41.874;12.526;2022-10-16T16:46:52;23.20;79.80
40538;DHT22;27925;41.874;12.526;2022-10-16T16:49:19;23.10;80.20
40538;DHT22;27925;41.874;12.526;2022-10-16T16:51:45;23.10;80.80
40538;DHT22;27925;41.874;12.526;2022-10-16T16:54:14;23.10;80.80
40538;DHT22;27925;41.874;12.526;2022-10-16T16:56:41;23.00;81.00
40538;DHT22;27925;41.874;12.526;2022-10-16T16:59:17;23.00;81.40
40538;DHT22;27925;41.874;12.526;2022-10-16T17:01:45;22.90;81.80
40538;DHT22;27925;41.874;12.526;2022-10-16T17:04:12;22.90;81.80
40538;DHT22;27925;41.874;12.526;2022-10-16T17:06:40;22.90;82.30
40538;DHT22;27925;41.874;12.526;2022-10-16T17:09:08;22.90;82.60
40538;DHT22;27925;41.874;12.526;2022-10-16T17:11:35;22.80;83.40
40538;DHT22;27925;41.874;12.526;2022-10-16T17:14:02;22.80;83.80
40538;DHT22;27925;41.874;12.526;2022-10-16T17:16:33;22.80;84.20
40538;DHT22;27925;41.874;12.526;2022-10-16T17:19:08;22.70;85.00
40538;DHT22;27925;41.874;12.526;2022-10-16T17:21:36;22.70;85.10
40538;DHT22;27925;41.874;12.526;2022-10-16T17:24:03;22.70;85.30
40538;DHT22;27925;41.874;12.526;2022-10-16T17:26:31;22.60;85.90
40538;DHT22;27925;41.874;12.526;2022-10-16T17:29:00;22.60;86.20
40538;DHT22;27925;41.874;12.526;2022-10-16T17:31:31;22.60;86.50
40538;DHT22;27925;41.874;12.526;2022-10-16T17:33:59;22.50;86.50
40538;DHT22;27925;41.874;12.526;2022-10-16T17:36:26;22.50;87.20
40538;DHT22;27925;41.874;12.526;2022-10-16T17:39:04;22.50;87.40
40538;DHT22;27925;41.874;12.526;2022-10-16T17:41:32;22.50;88.10
40538;DHT22;27925;41.874;12.526;2022-10-16T17:43:58;22.50;88.50
40538;DHT22;27925;41.874;12.526;2022-10-16T17:46:24;22.40;88.50